Time;durP1;ratioP1;P1;durP2;ratioP2;P2;SDS_P1;SDS_P2;PMS_P1;PMS_P2;Temp;Humidity;BMP_temperature;BMP_pressure;BME280_temperature;BME280_humidity;BME280_pressure;Samples;Min_cycle;Max_cycle;Signal;HPM_P1;HPM_P2
2022/07/31 00:01:53;;;;;;;1.27;1.17;;;17.00;99.90;;;;;;5113492;28;20502;-83
2022/07/31 00:04:23;;;;;;;1.83;1.53;;;17.00;99.90;;;;;;5110218;28;20457;-83
2022/07/31 00:06:51;;;;;;;1.63;1.20;;;17.00;99.90;;;;;;5107920;28;20896;-83
2022/07/31 00:09:18;;;;;;;2.30;2.17;;;17.00;99.90;;;;;;5107354;28;20509;-83
2022/07/31 00:11:45;;;;;;;1.90;1.33;;;17.00;99.90;;;;;;5109353;28;20493;-83
2022/07/31 00:14:12;;;;;;;1.73;1.63;;;17.10;99.90;;;;;;5113003;28;20472;-83
2022/07/31 00:16:42;;;;;;;1.83;1.50;;;17.10;99.90;;;;;;5108342;28;20519;-83
2022/07/31 00:19:11;;;;;;;1.30;1.20;;;17.10;99.90;;;;;;5107022;28;20552;-83
2022/07/31 00:21:38;;;;;;;2.10;2.00;;;17.10;99.90;;;;;;5115177;28;20519;-83
2022/07/31 00:24:05;;;;;;;1.70;1.60;;;17.00;99.90;;;;;;5113277;27;20464;-83
2022/07/31 00:26:33;;;;;;;1.90;1.80;;;17.00;99.90;;;;;;5116152;27;20461;-83
2022/07/31 00:29:00;;;;;;;2.13;1.93;;;17.00;99.90;;;;;;5111555;27;20835;-83
2022/07/31 00:31:27;;;;;;;1.77;1.67;;;16.90;99.90;;;;;;5109297;27;21033;-83
2022/07/31 00:33:54;;;;;;;1.50;1.40;;;16.90;99.90;;;;;;5117731;27;20472;-83
2022/07/31 00:36:22;;;;;;;1.43;1.33;;;16.90;99.90;;;;;;5112307;27;20516;-83
2022/07/31 00:38:49;;;;;;;1.63;1.37;;;16.90;99.90;;;;;;5111200;27;20457;-83
2022/07/31 00:41:16;;;;;;;1.40;1.30;;;16.90;99.90;;;;;;5112514;27;20467;-83
2022/07/31 00:43:43;;;;;;;2.10;2.00;;;16.90;99.90;;;;;;5111363;27;20470;-83
2022/07/31 00:46:10;;;;;;;3.07;1.33;;;16.90;99.90;;;;;;5111093;27;20911;-83
2022/07/31 00:48:37;;;;;;;1.50;1.20;;;16.90;99.90;;;;;;5114404;27;20465;-83
2022/07/31 00:51:04;;;;;;;1.90;1.80;;;16.90;99.90;;;;;;5114353;27;20475;-83
2022/07/31 00:53:33;;;;;;;2.53;1.83;;;17.00;99.90;;;;;;5115959;27;20845;-83
2022/07/31 00:56:00;;;;;;;2.20;1.47;;;16.90;99.90;;;;;;5117007;27;20499;-83
2022/07/31 00:58:27;;;;;;;2.00;1.80;;;17.00;99.90;;;;;;5112443;27;20449;-83
2022/07/31 01:00:54;;;;;;;1.30;1.20;;;16.90;99.90;;;;;;5113516;27;20474;-83
2022/07/31 01:03:21;;;;;;;1.73;1.60;;;16.90;99.90;;;;;;5116181;27;20462;-83
2022/07/31 01:05:48;;;;;;;2.50;1.77;;;16.90;99.90;;;;;;5113051;27;20472;-83
2022/07/31 01:08:15;;;;;;;1.97;1.87;;;16.90;99.90;;;;;;5116175;27;20464;-83
2022/07/31 01:10:56;;;;;;;1.80;1.53;;;16.70;99.90;;;;;;5114711;27;20508;-83
2022/07/31 01:13:31;;;;;;;1.77;1.67;;;16.70;99.90;;;;;;5112595;27;20461;-83
2022/07/31 01:15:59;;;;;;;1.70;1.60;;;16.70;99.90;;;;;;5113728;27;20500;-83
2022/07/31 01:18:28;;;;;;;2.20;2.10;;;16.60;99.90;;;;;;5106884;27;20709;-83
2022/07/31 01:21:00;;;;;;;2.27;2.13;;;16.60;99.90;;;;;;5118498;27;20445;-83
2022/07/31 01:23:46;;;;;;;1.77;1.67;;;16.70;99.90;;;;;;5111658;27;20474;-83
2022/07/31 01:26:24;;;;;;;1.70;1.60;;;16.70;99.90;;;;;;5108208;27;20485;-83
2022/07/31 01:29:06;;;;;;;1.87;1.77;;;16.70;99.90;;;;;;5112833;27;20465;-83
2022/07/31 01:31:37;;;;;;;2.90;2.20;;;16.80;99.90;;;;;;5110224;27;20465;-82
2022/07/31 01:34:11;;;;;;;1.63;1.50;;;16.80;99.90;;;;;;5113566;27;20465;-83
2022/07/31 01:36:44;;;;;;;1.17;1.07;;;16.80;99.90;;;;;;5106285;27;20489;-83
2022/07/31 01:39:12;;;;;;;1.60;1.50;;;16.80;99.90;;;;;;5116190;27;20473;-83
2022/07/31 01:41:43;;;;;;;2.10;2.00;;;16.80;99.90;;;;;;5114948;27;20495;-83
2022/07/31 01:44:15;;;;;;;1.73;1.13;;;16.80;99.90;;;;;;5112553;27;20461;-83
2022/07/31 01:46:45;;;;;;;1.57;1.40;;;16.80;99.90;;;;;;5110851;27;20466;-83
2022/07/31 01:49:13;;;;;;;2.00;1.40;;;16.70;99.90;;;;;;5111941;27;20963;-83
2022/07/31 01:51:43;;;;;;;1.60;1.50;;;16.80;99.90;;;;;;5115375;27;20469;-83
2022/07/31 01:54:12;;;;;;;2.77;2.07;;;16.80;99.90;;;;;;5114079;27;20470;-83
2022/07/31 01:56:40;;;;;;;1.60;1.50;;;16.70;99.90;;;;;;5114399;27;20523;-83
2022/07/31 01:59:09;;;;;;;1.43;1.33;;;16.70;99.90;;;;;;5117306;27;20464;-83
2022/07/31 02:01:39;;;;;;;2.27;2.17;;;16.80;99.90;;;;;;5117828;27;20470;-83
2022/07/31 02:04:07;;;;;;;3.10;1.80;;;16.70;99.90;;;;;;5110715;27;20502;-83
2022/07/31 02:06:36;;;;;;;2.40;1.77;;;16.70;99.90;;;;;;5114027;27;20453;-83
2022/07/31 02:09:04;;;;;;;1.87;1.77;;;16.70;99.90;;;;;;5111841;27;21932;-83
2022/07/31 02:11:31;;;;;;;2.03;1.67;;;16.70;99.90;;;;;;5113649;27;21109;-83
2022/07/31 02:14:00;;;;;;;2.83;1.77;;;16.70;99.90;;;;;;5110039;27;20518;-83
2022/07/31 02:16:28;;;;;;;2.27;1.80;;;16.70;99.90;;;;;;5109662;27;20473;-83
2022/07/31 02:18:59;;;;;;;1.40;1.30;;;16.60;99.90;;;;;;5112550;27;20454;-83
2022/07/31 02:21:27;;;;;;;1.90;1.80;;;16.70;99.90;;;;;;5113502;27;20904;-83
2022/07/31 02:23:55;;;;;;;5.60;2.83;;;16.70;99.90;;;;;;5114496;27;20548;-82
2022/07/31 02:26:26;;;;;;;2.63;1.97;;;16.60;99.90;;;;;;5120698;27;20496;-83
2022/07/31 02:28:54;;;;;;;2.57;2.47;;;16.60;99.90;;;;;;5112853;27;20465;-83
2022/07/31 02:31:23;;;;;;;4.30;1.93;;;16.60;99.90;;;;;;5112137;27;20456;-83
2022/07/31 02:33:52;;;;;;;1.30;1.20;;;16.60;99.90;;;;;;5113298;27;20514;-83
2022/07/31 02:36:22;;;;;;;1.83;1.73;;;16.60;99.90;;;;;;5114101;27;20485;-83
2022/07/31 02:38:51;;;;;;;1.60;1.50;;;16.50;99.90;;;;;;5112225;27;20563;-83
2022/07/31 02:41:20;;;;;;;1.93;1.73;;;16.60;99.90;;;;;;5111393;27;20942;-83
2022/07/31 02:43:47;;;;;;;1.70;1.60;;;16.50;99.90;;;;;;5109911;27;20871;-83
2022/07/31 02:46:15;;;;;;;1.47;1.37;;;16.50;99.90;;;;;;5111724;27;20467;-83
2022/07/31 02:48:42;;;;;;;2.20;2.10;;;16.50;99.90;;;;;;5112611;27;20934;-83
2022/07/31 02:51:10;;;;;;;2.30;2.10;;;16.40;99.90;;;;;;5114643;27;20461;-83
2022/07/31 02:53:38;;;;;;;1.60;1.50;;;16.40;99.90;;;;;;5108525;27;20534;-83
2022/07/31 02:56:08;;;;;;;2.07;1.97;;;16.40;99.90;;;;;;5115491;27;20473;-83
2022/07/31 02:58:37;;;;;;;2.17;1.97;;;16.40;99.90;;;;;;5112726;27;20464;-83
2022/07/31 03:01:06;;;;;;;2.73;2.53;;;16.40;99.90;;;;;;5110715;27;20468;-83
2022/07/31 03:03:33;;;;;;;2.30;2.10;;;16.40;99.90;;;;;;5109929;27;21058;-83
2022/07/31 03:06:00;;;;;;;2.20;1.83;;;16.30;99.90;;;;;;5111102;27;20461;-83
2022/07/31 03:08:28;;;;;;;3.87;2.20;;;16.30;99.90;;;;;;5112570;27;20461;-83
2022/07/31 03:10:56;;;;;;;3.43;1.80;;;16.20;99.90;;;;;;5113004;27;20464;-83
2022/07/31 03:13:27;;;;;;;2.40;2.20;;;16.20;99.90;;;;;;5109360;27;20748;-83
2022/07/31 03:15:55;;;;;;;2.13;2.03;;;16.20;99.90;;;;;;5110497;27;21011;-83
2022/07/31 03:18:22;;;;;;;1.27;1.17;;;16.10;99.90;;;;;;5108813;27;20487;-83
2022/07/31 03:20:51;;;;;;;3.43;2.53;;;16.10;99.90;;;;;;5113784;27;20469;-82
2022/07/31 03:23:21;;;;;;;2.70;2.50;;;16.00;99.90;;;;;;5111093;27;20461;-82
2022/07/31 03:25:50;;;;;;;1.67;1.57;;;16.00;99.90;;;;;;5113997;27;20842;-82
2022/07/31 03:28:19;;;;;;;2.50;2.30;;;16.00;99.90;;;;;;5112954;27;20542;-82
2022/07/31 03:30:46;;;;;;;1.70;1.60;;;16.00;99.90;;;;;;5112920;27;20557;-82
2022/07/31 03:33:14;;;;;;;2.50;2.30;;;15.80;99.90;;;;;;5113675;27;20493;-83
2022/07/31 03:35:41;;;;;;;2.17;2.07;;;15.80;99.90;;;;;;5111334;27;20472;-83
2022/07/31 03:38:08;;;;;;;2.17;2.07;;;15.70;99.90;;;;;;5109461;27;20483;-83
2022/07/31 03:40:35;;;;;;;2.20;2.10;;;15.70;99.90;;;;;;5112861;28;20472;-83
2022/07/31 03:43:04;;;;;;;1.70;1.60;;;15.60;99.90;;;;;;5109004;28;21139;-82
2022/07/31 03:45:34;;;;;;;2.80;1.97;;;15.50;99.90;;;;;;5109746;28;20813;-83
2022/07/31 03:48:02;;;;;;;3.20;2.47;;;15.50;99.90;;;;;;5110980;28;20822;-82
2022/07/31 03:50:29;;;;;;;1.97;1.77;;;15.40;99.90;;;;;;5108895;28;20459;-82
2022/07/31 03:52:57;;;;;;;1.73;1.63;;;15.40;99.90;;;;;;5114228;28;20464;-82
2022/07/31 03:55:25;;;;;;;2.77;2.50;;;15.40;99.90;;;;;;5109612;28;20468;-82
2022/07/31 03:57:53;;;;;;;2.23;2.03;;;15.40;99.90;;;;;;5114937;27;20503;-83
2022/07/31 04:00:25;;;;;;;1.50;1.40;;;15.50;99.90;;;;;;5114391;27;21062;-82
2022/07/31 04:02:55;;;;;;;1.53;1.17;;;15.50;99.90;;;;;;5116662;27;20492;-82
2022/07/31 04:05:22;;;;;;;2.27;2.17;;;15.50;99.90;;;;;;5109121;27;21056;-82
2022/07/31 04:07:49;;;;;;;2.40;2.30;;;15.50;99.90;;;;;;5115149;27;20459;-82
2022/07/31 04:10:16;;;;;;;2.00;1.90;;;15.50;99.90;;;;;;5115434;27;20521;-82
2022/07/31 04:12:43;;;;;;;2.03;1.93;;;15.60;99.90;;;;;;5115324;27;20504;-82
2022/07/31 04:15:11;;;;;;;1.97;1.80;;;15.60;99.90;;;;;;5113366;27;20824;-83
2022/07/31 04:17:38;;;;;;;2.10;1.93;;;15.70;99.90;;;;;;5108750;27;20495;-82
2022/07/31 04:20:08;;;;;;;5.73;1.50;;;15.90;99.90;;;;;;5113340;27;20522;-82
2022/07/31 04:22:37;;;;;;;1.97;1.87;;;16.00;99.90;;;;;;5115476;27;20463;-83
2022/07/31 04:25:05;;;;;;;1.80;1.50;;;16.00;99.90;;;;;;5114655;27;20880;-83
2022/07/31 04:27:32;;;;;;;1.87;1.70;;;16.00;99.90;;;;;;5115002;27;20473;-82
2022/07/31 04:29:59;;;;;;;2.30;1.77;;;16.00;99.90;;;;;;5114161;27;20469;-82
2022/07/31 04:32:26;;;;;;;1.80;1.70;;;16.00;99.90;;;;;;5113851;27;20510;-83
2022/07/31 04:34:53;;;;;;;1.70;1.60;;;16.10;99.90;;;;;;5112760;27;20471;-83
2022/07/31 04:37:22;;;;;;;1.50;1.40;;;16.20;99.90;;;;;;5114639;27;20492;-82
2022/07/31 04:39:49;;;;;;;2.30;1.87;;;16.30;99.90;;;;;;5111843;27;20936;-82
2022/07/31 04:42:16;;;;;;;3.03;2.83;;;16.40;99.90;;;;;;5117907;27;20463;-82
2022/07/31 04:44:44;;;;;;;1.60;1.50;;;16.60;99.90;;;;;;5114992;27;20467;-82
2022/07/31 04:47:12;;;;;;;2.30;2.20;;;16.70;99.90;;;;;;5115016;27;20464;-83
2022/07/31 04:49:39;;;;;;;2.60;2.40;;;16.80;99.90;;;;;;5112707;27;20476;-82
2022/07/31 04:52:07;;;;;;;2.17;1.50;;;16.70;99.90;;;;;;5111719;27;20457;-82
2022/07/31 04:54:37;;;;;;;2.00;1.90;;;16.80;99.90;;;;;;5109985;27;20452;-82
2022/07/31 04:57:04;;;;;;;1.60;1.50;;;16.80;99.90;;;;;;5114860;27;20477;-82
2022/07/31 04:59:32;;;;;;;1.37;1.27;;;16.90;99.90;;;;;;5115999;27;20513;-82
2022/07/31 05:01:59;;;;;;;1.60;1.50;;;17.00;99.90;;;;;;5113633;27;20461;-82
2022/07/31 05:04:27;;;;;;;1.53;1.30;;;17.20;99.90;;;;;;5111625;27;20461;-82
2022/07/31 05:06:54;;;;;;;2.10;1.30;;;17.20;99.90;;;;;;5114569;27;20461;-82
2022/07/31 05:09:23;;;;;;;1.40;1.40;;;17.40;99.90;;;;;;5112661;27;20941;-82
2022/07/31 05:11:52;;;;;;;1.23;1.13;;;17.50;99.90;;;;;;5116056;27;20458;-82
2022/07/31 05:14:21;;;;;;;2.00;1.27;;;17.70;99.90;;;;;;5114160;27;20462;-82
2022/07/31 05:16:49;;;;;;;1.90;1.40;;;17.90;99.90;;;;;;5112897;27;20461;-82
2022/07/31 05:19:16;;;;;;;1.63;1.53;;;18.10;99.90;;;;;;5118006;27;20508;-82
2022/07/31 05:21:44;;;;;;;1.73;1.63;;;18.00;99.90;;;;;;5116563;27;20464;-82
2022/07/31 05:24:11;;;;;;;1.50;1.40;;;18.00;99.90;;;;;;5117938;27;21002;-83
2022/07/31 05:26:38;;;;;;;1.73;1.63;;;18.10;99.90;;;;;;5114330;27;20450;-83
2022/07/31 05:29:07;;;;;;;1.70;1.60;;;18.10;99.90;;;;;;5113873;27;20476;-82
2022/07/31 05:31:34;;;;;;;1.60;1.50;;;18.00;99.90;;;;;;5113297;27;20461;-82
2022/07/31 05:34:01;;;;;;;3.90;1.77;;;18.00;99.90;;;;;;5112573;27;20461;-82
2022/07/31 05:36:28;;;;;;;1.70;1.60;;;18.10;99.90;;;;;;5114207;27;21165;-82
2022/07/31 05:38:55;;;;;;;1.40;1.30;;;18.00;99.90;;;;;;5116898;27;21029;-82
2022/07/31 05:41:22;;;;;;;1.90;1.80;;;18.00;99.90;;;;;;5111452;27;20465;-82
2022/07/31 05:43:49;;;;;;;1.50;1.40;;;18.00;99.90;;;;;;5115372;27;21120;-82
2022/07/31 05:46:17;;;;;;;1.80;1.70;;;18.10;99.90;;;;;;5119149;27;20471;-82
2022/07/31 05:48:44;;;;;;;2.57;2.37;;;18.10;99.90;;;;;;5111709;27;20971;-82
2022/07/31 05:51:12;;;;;;;2.60;2.07;;;18.20;99.90;;;;;;5110853;27;20473;-82
2022/07/31 05:53:41;;;;;;;1.70;1.60;;;18.10;99.90;;;;;;5106005;27;21149;-82
2022/07/31 05:56:08;;;;;;;2.20;2.03;;;18.10;99.90;;;;;;5108694;27;20845;-82
2022/07/31 05:58:36;;;;;;;1.47;1.37;;;18.00;99.90;;;;;;5104479;27;20494;-82
2022/07/31 06:01:03;;;;;;;2.70;1.80;;;17.90;99.90;;;;;;5118331;27;20472;-82
2022/07/31 06:03:34;;;;;;;1.93;1.70;;;18.00;99.90;;;;;;5107779;27;20465;-82
2022/07/31 06:06:03;;;;;;;1.80;1.70;;;17.90;99.90;;;;;;5106562;27;20496;-82
2022/07/31 06:08:31;;;;;;;2.37;2.17;;;17.80;99.90;;;;;;5110841;27;20922;-82
2022/07/31 06:10:58;;;;;;;2.40;2.20;;;17.80;99.90;;;;;;5110675;27;21089;-82
2022/07/31 06:13:27;;;;;;;2.27;2.17;;;17.80;99.90;;;;;;5103622;27;20810;-82
2022/07/31 06:15:56;;;;;;;2.20;2.00;;;18.20;99.90;;;;;;5104509;27;20466;-82
2022/07/31 06:18:24;;;;;;;2.70;2.50;;;18.50;99.90;;;;;;5104355;27;20482;-82
2022/07/31 06:20:52;;;;;;;2.97;2.63;;;18.40;99.90;;;;;;5109431;27;20466;-82
2022/07/31 06:23:20;;;;;;;2.00;1.90;;;18.30;99.90;;;;;;5110326;27;20642;-82
2022/07/31 06:25:47;;;;;;;1.83;1.67;;;18.20;99.90;;;;;;5108502;27;20584;-82
2022/07/31 06:28:15;;;;;;;1.90;1.70;;;18.10;99.90;;;;;;5110736;27;20542;-83
2022/07/31 06:30:42;;;;;;;2.13;1.20;;;18.00;99.90;;;;;;5103337;27;20467;-83
2022/07/31 06:33:09;;;;;;;1.67;1.57;;;18.00;99.90;;;;;;5107646;27;20472;-83
2022/07/31 06:35:36;;;;;;;1.80;1.70;;;18.00;99.90;;;;;;5113309;27;20465;-83
2022/07/31 06:38:05;;;;;;;1.40;1.30;;;18.10;99.90;;;;;;5107214;27;20571;-84
2022/07/31 06:40:32;;;;;;;1.90;1.80;;;18.10;99.90;;;;;;5106821;27;20470;-84
2022/07/31 06:42:59;;;;;;;1.67;1.43;;;18.00;99.90;;;;;;5110145;27;20461;-83
2022/07/31 06:45:26;;;;;;;9.33;2.63;;;18.20;99.90;;;;;;5106917;27;20491;-83
2022/07/31 06:47:54;;;;;;;1.73;1.63;;;18.20;99.90;;;;;;5109086;27;20849;-84
2022/07/31 06:50:21;;;;;;;2.13;2.00;;;18.30;99.90;;;;;;5112181;27;20560;-83
2022/07/31 06:52:48;;;;;;;1.57;1.47;;;18.30;99.90;;;;;;5109249;27;20455;-83
2022/07/31 06:55:17;;;;;;;2.50;2.07;;;18.30;99.90;;;;;;5106007;27;20469;-83
2022/07/31 06:57:44;;;;;;;1.30;1.20;;;18.40;99.90;;;;;;5106932;27;20572;-82
2022/07/31 07:00:12;;;;;;;1.47;1.37;;;18.30;99.90;;;;;;5110889;27;20528;-84
2022/07/31 07:02:39;;;;;;;1.50;1.40;;;18.40;99.90;;;;;;5110592;27;20462;-84
2022/07/31 07:05:07;;;;;;;2.13;1.97;;;18.70;99.90;;;;;;5109178;27;20462;-84
2022/07/31 07:07:37;;;;;;;2.00;1.90;;;19.20;99.90;;;;;;5105627;27;20471;-84
2022/07/31 07:10:06;;;;;;;4.43;1.50;;;19.80;99.90;;;;;;5114222;27;20959;-85
2022/07/31 07:12:34;;;;;;;1.67;1.57;;;20.30;99.90;;;;;;5108374;27;21816;-84
2022/07/31 07:15:01;;;;;;;1.83;1.73;;;20.40;99.90;;;;;;5108573;27;20472;-84
2022/07/31 07:17:28;;;;;;;2.40;2.30;;;20.30;99.90;;;;;;5109175;27;20466;-84
2022/07/31 07:19:55;;;;;;;1.53;1.43;;;20.40;99.90;;;;;;5110254;27;20571;-84
2022/07/31 07:22:23;;;;;;;1.73;1.63;;;20.70;99.90;;;;;;5109146;27;20468;-85
2022/07/31 07:24:50;;;;;;;2.40;1.90;;;20.90;99.90;;;;;;5102845;27;20502;-84
2022/07/31 07:27:19;;;;;;;2.03;1.70;;;20.70;99.90;;;;;;5100317;27;20632;-84
2022/07/31 07:29:47;;;;;;;1.90;1.80;;;20.80;99.90;;;;;;5099784;27;20902;-85
2022/07/31 07:32:15;;;;;;;1.93;1.83;;;20.70;99.90;;;;;;5103313;27;20458;-85
2022/07/31 07:34:42;;;;;;;2.23;1.60;;;20.80;99.90;;;;;;5098957;27;21087;-84
2022/07/31 07:37:09;;;;;;;1.87;1.77;;;21.00;99.90;;;;;;5105370;28;20464;-84
2022/07/31 07:39:36;;;;;;;1.73;1.63;;;20.90;99.90;;;;;;5107279;28;20999;-83
2022/07/31 07:42:03;;;;;;;2.40;2.30;;;20.80;99.90;;;;;;5108004;28;20467;-84
2022/07/31 07:44:30;;;;;;;1.60;1.50;;;20.90;99.90;;;;;;5102214;28;20464;-83
2022/07/31 07:46:58;;;;;;;1.63;1.53;;;21.00;99.90;;;;;;5107197;28;20452;-84
2022/07/31 07:49:25;;;;;;;1.67;1.57;;;21.00;99.90;;;;;;5100311;28;20449;-84
2022/07/31 07:51:52;;;;;;;1.90;1.60;;;21.10;99.90;;;;;;5101741;28;20966;-83
2022/07/31 07:54:19;;;;;;;1.97;1.87;;;21.20;99.90;;;;;;5107881;28;21019;-85
2022/07/31 07:56:46;;;;;;;1.30;1.20;;;21.30;99.90;;;;;;5104911;28;20464;-83
2022/07/31 07:59:13;;;;;;;1.37;1.27;;;21.40;99.90;;;;;;5109908;28;20500;-82
2022/07/31 08:01:40;;;;;;;1.43;1.33;;;21.60;99.90;;;;;;5103597;28;20469;-83
2022/07/31 08:04:09;;;;;;;3.87;1.67;;;21.50;99.90;;;;;;5110555;28;20502;-82
2022/07/31 08:06:36;;;;;;;1.63;1.53;;;21.30;99.90;;;;;;5106972;28;20471;-84
2022/07/31 08:09:04;;;;;;;1.10;1.00;;;21.50;99.90;;;;;;5105219;28;20456;-85
2022/07/31 08:11:31;;;;;;;1.77;1.67;;;21.50;99.90;;;;;;5117742;28;20475;-84
2022/07/31 08:13:58;;;;;;;1.43;1.23;;;21.60;99.90;;;;;;5116463;28;20461;-84
2022/07/31 08:16:25;;;;;;;1.77;1.67;;;21.60;99.90;;;;;;5111809;28;20545;-84
2022/07/31 08:18:53;;;;;;;1.53;1.43;;;21.60;99.90;;;;;;5106728;28;21015;-85
2022/07/31 08:21:22;;;;;;;1.20;1.20;;;21.70;99.90;;;;;;5102990;28;20517;-84
2022/07/31 08:23:49;;;;;;;1.17;1.07;;;22.00;99.90;;;;;;5106381;28;20472;-84
2022/07/31 08:26:17;;;;;;;1.57;1.47;;;21.90;99.90;;;;;;5090644;28;20477;-84
2022/07/31 08:28:44;;;;;;;1.10;1.00;;;21.70;99.90;;;;;;5082651;28;20463;-85
2022/07/31 08:31:11;;;;;;;1.50;1.40;;;21.90;99.90;;;;;;5083209;28;20473;-85
2022/07/31 08:33:38;;;;;;;1.70;1.60;;;21.80;99.90;;;;;;5087451;28;20921;-84
2022/07/31 08:36:07;;;;;;;1.20;1.10;;;21.80;99.90;;;;;;5092852;28;20458;-85
2022/07/31 08:38:37;;;;;;;2.57;1.13;;;21.90;99.90;;;;;;5085175;28;20485;-85
2022/07/31 08:41:04;;;;;;;1.40;1.30;;;21.90;99.90;;;;;;5082177;28;21117;-86
2022/07/31 08:43:31;;;;;;;1.23;1.13;;;22.10;99.90;;;;;;5087049;28;20459;-85
2022/07/31 08:46:01;;;;;;;1.60;1.50;;;22.50;99.90;;;;;;5086236;28;20861;-86
2022/07/31 08:48:32;;;;;;;2.80;1.70;;;22.50;99.90;;;;;;5090562;28;20842;-86
2022/07/31 08:51:01;;;;;;;1.97;1.77;;;22.50;99.90;;;;;;5093663;28;20485;-86
2022/07/31 08:53:31;;;;;;;1.60;1.23;;;22.50;99.90;;;;;;5087201;28;20934;-86
2022/07/31 08:56:00;;;;;;;1.00;0.90;;;22.60;99.90;;;;;;5091038;28;20797;-86
2022/07/31 08:58:28;;;;;;;1.07;1.03;;;22.90;99.90;;;;;;5087299;28;20569;-86
2022/07/31 09:00:55;;;;;;;0.90;0.90;;;22.80;99.50;;;;;;5098486;28;20469;-84
2022/07/31 09:03:22;;;;;;;1.23;1.17;;;22.90;99.80;;;;;;5087396;28;21105;-84
2022/07/31 09:05:49;;;;;;;0.97;0.80;;;22.90;98.70;;;;;;5089508;28;20463;-84
2022/07/31 09:08:17;;;;;;;1.20;1.10;;;22.90;97.80;;;;;;5096268;28;20523;-84
2022/07/31 09:10:45;;;;;;;1.00;1.00;;;22.80;98.70;;;;;;5092101;28;20466;-84
2022/07/31 09:13:15;;;;;;;1.07;1.00;;;22.80;98.90;;;;;;5096670;28;20461;-84
2022/07/31 09:15:42;;;;;;;0.83;0.83;;;22.60;97.00;;;;;;5093887;28;20473;-84
2022/07/31 09:18:20;;;;;;;1.00;0.93;;;22.90;99.60;;;;;;5093433;28;20470;-84
2022/07/31 09:20:58;;;;;;;1.20;1.10;;;22.90;99.30;;;;;;5096760;28;20450;-84
2022/07/31 09:23:26;;;;;;;0.80;0.80;;;22.90;96.70;;;;;;5097911;28;20462;-84
2022/07/31 09:25:55;;;;;;;1.30;1.13;;;22.90;96.60;;;;;;5104545;27;20504;-84
2022/07/31 09:28:33;;;;;;;1.00;0.90;;;23.10;98.30;;;;;;5113762;27;20467;-84
2022/07/31 09:31:00;;;;;;;1.20;1.00;;;23.00;95.00;;;;;;5128275;27;20441;-84
2022/07/31 09:33:29;;;;;;;1.37;1.27;;;22.90;95.10;;;;;;5111297;27;20466;-84
2022/07/31 09:35:57;;;;;;;0.83;0.83;;;22.90;96.60;;;;;;5114183;27;20530;-84
2022/07/31 09:38:31;;;;;;;1.60;1.47;;;23.10;95.80;;;;;;5117092;27;21180;-85
2022/07/31 09:41:09;;;;;;;0.80;0.80;;;23.30;97.70;;;;;;5112983;27;20519;-84
2022/07/31 09:43:38;;;;;;;0.93;0.93;;;23.40;95.90;;;;;;5104836;27;20473;-84
2022/07/31 09:46:07;;;;;;;3.23;0.80;;;23.40;96.20;;;;;;5108604;27;20540;-84
2022/07/31 09:48:34;;;;;;;1.73;1.63;;;23.50;95.00;;;;;;5113181;27;20464;-85
2022/07/31 09:51:04;;;;;;;1.10;1.00;;;23.40;94.70;;;;;;5108920;27;20458;-84
2022/07/31 09:53:40;;;;;;;3.03;0.90;;;23.50;94.90;;;;;;5111927;27;21098;-85
2022/07/31 09:56:11;;;;;;;1.27;1.00;;;23.60;95.00;;;;;;5114072;27;20465;-85
2022/07/31 09:58:40;;;;;;;0.97;0.90;;;23.70;94.50;;;;;;5111969;27;20492;-84
2022/07/31 10:01:09;;;;;;;1.13;1.13;;;23.70;95.00;;;;;;5113739;27;20473;-84
2022/07/31 10:03:38;;;;;;;1.00;0.90;;;23.70;94.60;;;;;;5119460;27;20524;-84
2022/07/31 10:06:06;;;;;;;1.67;1.03;;;23.70;95.20;;;;;;5110928;27;21048;-84
2022/07/31 10:08:35;;;;;;;1.10;1.10;;;23.80;95.60;;;;;;5103863;27;20481;-85
2022/07/31 10:11:03;;;;;;;1.33;1.23;;;23.50;94.10;;;;;;5106365;27;20519;-85
2022/07/31 10:13:33;;;;;;;1.10;1.00;;;23.80;93.90;;;;;;5102127;27;20465;-85
2022/07/31 10:16:03;;;;;;;1.47;1.30;;;23.70;92.10;;;;;;5104657;27;21030;-85
2022/07/31 10:18:34;;;;;;;1.53;1.43;;;23.60;92.90;;;;;;5119155;27;20456;-84
2022/07/31 10:21:04;;;;;;;1.63;1.33;;;23.70;92.80;;;;;;5113137;27;20511;-84
2022/07/31 10:23:34;;;;;;;2.30;1.30;;;23.70;93.80;;;;;;5123020;27;20476;-83
2022/07/31 10:26:02;;;;;;;1.10;1.07;;;23.80;93.60;;;;;;5107752;27;20488;-85
2022/07/31 10:28:29;;;;;;;1.00;0.90;;;23.90;93.60;;;;;;5112503;27;20492;-85
2022/07/31 10:30:57;;;;;;;1.30;1.20;;;23.90;93.70;;;;;;5107147;27;21208;-85
2022/07/31 10:33:26;;;;;;;1.10;1.03;;;24.00;92.50;;;;;;5109863;27;20465;-85
2022/07/31 10:35:59;;;;;;;1.33;1.10;;;23.90;92.70;;;;;;5104325;27;20573;-85
2022/07/31 10:38:31;;;;;;;1.00;1.00;;;24.00;92.10;;;;;;5110186;27;21022;-85
2022/07/31 10:41:07;;;;;;;1.30;1.20;;;24.00;90.90;;;;;;5104204;27;20458;-85
2022/07/31 10:43:43;;;;;;;0.80;0.80;;;23.80;89.90;;;;;;5104414;27;20461;-85
2022/07/31 10:46:11;;;;;;;1.00;0.70;;;23.90;92.10;;;;;;5105029;27;20587;-85
2022/07/31 10:48:51;;;;;;;1.10;1.00;;;23.90;90.80;;;;;;5109319;27;20470;-85
2022/07/31 10:51:18;;;;;;;1.57;1.30;;;23.80;90.60;;;;;;5111750;27;20486;-85
2022/07/31 10:53:54;;;;;;;1.57;1.53;;;24.10;89.50;;;;;;5104611;27;20470;-85
2022/07/31 10:56:21;;;;;;;1.10;1.00;;;24.40;92.10;;;;;;5107173;27;20492;-85
2022/07/31 10:58:49;;;;;;;1.10;0.90;;;24.50;89.50;;;;;;5104339;27;20469;-85
2022/07/31 11:01:17;;;;;;;1.10;1.00;;;24.40;88.70;;;;;;5107788;27;20974;-87
2022/07/31 11:03:48;;;;;;;1.17;1.00;;;24.20;85.70;;;;;;5116863;27;20441;-87
2022/07/31 11:06:16;;;;;;;1.47;1.27;;;24.20;86.40;;;;;;5114355;27;20449;-87
2022/07/31 11:08:45;;;;;;;2.50;1.67;;;24.30;89.20;;;;;;5109975;27;20480;-84
2022/07/31 11:11:13;;;;;;;1.40;1.30;;;24.40;89.20;;;;;;5111917;27;20459;-84
2022/07/31 11:13:48;;;;;;;1.80;1.70;;;24.20;89.10;;;;;;5108551;27;20461;-85
2022/07/31 11:16:16;;;;;;;1.40;1.30;;;24.30;90.20;;;;;;5107090;27;20461;-85
2022/07/31 11:18:45;;;;;;;1.00;0.90;;;24.30;88.30;;;;;;5105295;27;20904;-87
2022/07/31 11:21:13;;;;;;;3.00;1.43;;;24.30;87.40;;;;;;5108639;27;20917;-84
2022/07/31 11:23:41;;;;;;;1.20;1.10;;;24.10;85.10;;;;;;5109125;27;20519;-84
2022/07/31 11:26:08;;;;;;;1.53;1.23;;;24.20;88.80;;;;;;5110547;27;20562;-84
2022/07/31 11:28:36;;;;;;;1.13;1.10;;;24.40;90.40;;;;;;5105062;27;20535;-84
2022/07/31 11:31:05;;;;;;;0.90;0.90;;;24.20;89.50;;;;;;5106686;27;20469;-83
2022/07/31 11:33:35;;;;;;;1.40;1.30;;;24.10;90.60;;;;;;5102181;27;20488;-83
2022/07/31 11:36:08;;;;;;;1.40;1.30;;;24.10;91.00;;;;;;5105948;27;20450;-84
2022/07/31 11:38:37;;;;;;;1.50;1.40;;;23.90;91.10;;;;;;5105339;27;20489;-84
2022/07/31 11:41:05;;;;;;;1.63;1.53;;;24.00;91.20;;;;;;5103499;28;20489;-86
2022/07/31 11:43:33;;;;;;;1.80;1.70;;;24.60;92.90;;;;;;5110064;28;20461;-86
2022/07/31 11:46:01;;;;;;;1.80;1.70;;;24.90;91.30;;;;;;5110362;28;20565;-84
2022/07/31 11:48:31;;;;;;;2.03;1.10;;;25.10;89.60;;;;;;5106286;28;20490;-83
2022/07/31 11:50:59;;;;;;;5.77;2.00;;;25.40;90.10;;;;;;5114824;28;20461;-83
2022/07/31 11:53:26;;;;;;;1.77;1.57;;;24.90;84.50;;;;;;5105566;28;20482;-84
2022/07/31 11:55:57;;;;;;;2.10;1.90;;;25.30;90.30;;;;;;5107091;28;20448;-83
2022/07/31 11:58:26;;;;;;;1.40;1.30;;;25.70;88.30;;;;;;5115233;28;20473;-86
2022/07/31 12:00:54;;;;;;;1.33;1.23;;;25.70;88.00;;;;;;5110902;28;21032;-86
2022/07/31 12:03:25;;;;;;;2.90;1.57;;;25.50;83.70;;;;;;5118517;28;20464;-86
2022/07/31 12:05:53;;;;;;;1.20;1.10;;;25.40;83.80;;;;;;5108315;28;20461;-86
2022/07/31 12:08:21;;;;;;;1.20;1.10;;;25.20;84.20;;;;;;5104151;28;20462;-83
2022/07/31 12:10:49;;;;;;;1.20;1.10;;;24.60;85.50;;;;;;5107882;28;20479;-83
2022/07/31 12:13:19;;;;;;;1.70;1.40;;;24.40;83.90;;;;;;5105084;28;20457;-85
2022/07/31 12:15:58;;;;;;;1.30;1.20;;;24.60;87.60;;;;;;5109041;28;20848;-85
2022/07/31 12:18:29;;;;;;;1.00;1.00;;;24.90;85.20;;;;;;5098101;28;20473;-86
2022/07/31 12:20:59;;;;;;;1.60;1.50;;;25.00;83.80;;;;;;5109889;27;20492;-84
2022/07/31 12:23:26;;;;;;;1.60;1.50;;;24.80;85.30;;;;;;5110997;27;20460;-84
2022/07/31 12:25:53;;;;;;;1.43;1.20;;;24.80;89.20;;;;;;5110817;27;21023;-83
2022/07/31 12:28:22;;;;;;;1.10;1.10;;;24.60;85.70;;;;;;5111032;27;20837;-84
2022/07/31 12:30:58;;;;;;;1.97;1.77;;;24.70;86.60;;;;;;5108255;27;20506;-85
2022/07/31 12:33:26;;;;;;;2.17;1.60;;;24.70;87.00;;;;;;5108910;27;20466;-86
2022/07/31 12:35:53;;;;;;;1.10;1.00;;;25.00;86.30;;;;;;5104242;27;20472;-84
2022/07/31 12:38:23;;;;;;;1.13;0.90;;;25.10;84.10;;;;;;5109445;27;20462;-85
2022/07/31 12:41:01;;;;;;;1.50;1.40;;;25.00;78.40;;;;;;5103181;27;20485;-84
2022/07/31 12:43:30;;;;;;;0.97;0.97;;;24.80;79.60;;;;;;5106865;27;20467;-86
2022/07/31 12:45:59;;;;;;;1.50;1.17;;;24.70;79.60;;;;;;5108582;27;20461;-86
2022/07/31 12:48:26;;;;;;;1.60;1.30;;;24.50;80.60;;;;;;5107582;27;20948;-86
2022/07/31 12:50:53;;;;;;;1.47;1.37;;;24.40;83.30;;;;;;5107280;27;20482;-83
2022/07/31 12:53:21;;;;;;;0.83;0.80;;;24.40;82.00;;;;;;5108360;27;20527;-84
2022/07/31 12:55:48;;;;;;;3.03;1.57;;;24.60;81.30;;;;;;5107217;27;20470;-84